Ashburn, Missouri
Current Conditions -  °F | °C
As of 6:15 AM on Monday 24 Nov 2014 (Local Time) from KPPQ Reporting Station
Overcast Overcast  
Wind Chill: 25°   Ceiling: 2100
Heat Index: 36°   Visibility: 10mi
Dew Point: 32°   Wind: 18mph
Humidity: 87%   Direction: 260°W
Pressure: 29.42"   Gusts: 25mph
Location:  39.54°N, 91.17°W
Report Text: KPPQ 241215Z AUTO 26016G22KT 10SM OVC021 02/00 A2942 RMK AO2 T00200000 PWINO
Loading
Personal Weather Stations






























Interactive Weather Map New forecast layout! Learn more

10-Day Weather Forecast

Advertisements
Track Severe Weather on mobile